sensor_id;sensor_type;location;lat;lon;timestamp;P1;durP1;ratioP1;P2;durP2;ratioP2
6999;SDS011;3540;53.242;10.408;2023-11-21T00:00:12;9.03;;;4.27;;
6999;SDS011;3540;53.242;10.408;2023-11-21T00:02:39;8.37;;;4.20;;
6999;SDS011;3540;53.242;10.408;2023-11-21T00:05:06;6.80;;;3.80;;
6999;SDS011;3540;53.242;10.408;2023-11-21T00:07:36;6.67;;;4.17;;
6999;SDS011;3540;53.242;10.408;2023-11-21T00:10:03;9.27;;;4.43;;
6999;SDS011;3540;53.242;10.408;2023-11-21T00:12:33;7.97;;;3.97;;
6999;SDS011;3540;53.242;10.408;2023-11-21T00:14:59;5.73;;;3.63;;
6999;SDS011;3540;53.242;10.408;2023-11-21T00:17:24;7.23;;;3.83;;
6999;SDS011;3540;53.242;10.408;2023-11-21T00:19:50;7.07;;;4.17;;
6999;SDS011;3540;53.242;10.408;2023-11-21T00:22:19;5.73;;;3.53;;
6999;SDS011;3540;53.242;10.408;2023-11-21T00:24:45;6.80;;;3.90;;
6999;SDS011;3540;53.242;10.408;2023-11-21T00:27:11;6.07;;;4.20;;
6999;SDS011;3540;53.242;10.408;2023-11-21T00:29:37;6.23;;;4.50;;
6999;SDS011;3540;53.242;10.408;2023-11-21T00:32:04;7.40;;;5.10;;
6999;SDS011;3540;53.242;10.408;2023-11-21T00:34:30;6.70;;;4.97;;
6999;SDS011;3540;53.242;10.408;2023-11-21T00:36:56;10.33;;;6.20;;
6999;SDS011;3540;53.242;10.408;2023-11-21T00:39:22;9.20;;;6.13;;
6999;SDS011;3540;53.242;10.408;2023-11-21T00:41:47;10.97;;;6.73;;
6999;SDS011;3540;53.242;10.408;2023-11-21T00:44:13;11.13;;;7.13;;
6999;SDS011;3540;53.242;10.408;2023-11-21T00:46:39;11.27;;;7.23;;
6999;SDS011;3540;53.242;10.408;2023-11-21T00:49:04;11.17;;;7.17;;
6999;SDS011;3540;53.242;10.408;2023-11-21T00:51:30;12.33;;;8.10;;
6999;SDS011;3540;53.242;10.408;2023-11-21T00:53:56;14.10;;;8.30;;
6999;SDS011;3540;53.242;10.408;2023-11-21T00:56:22;11.67;;;8.13;;
6999;SDS011;3540;53.242;10.408;2023-11-21T00:58:48;13.67;;;8.70;;
6999;SDS011;3540;53.242;10.408;2023-11-21T01:01:17;12.67;;;7.57;;
6999;SDS011;3540;53.242;10.408;2023-11-21T01:03:46;15.13;;;9.23;;
6999;SDS011;3540;53.242;10.408;2023-11-21T01:06:12;12.83;;;8.50;;
6999;SDS011;3540;53.242;10.408;2023-11-21T01:08:38;15.87;;;8.87;;
6999;SDS011;3540;53.242;10.408;2023-11-21T01:11:04;15.50;;;9.23;;
6999;SDS011;3540;53.242;10.408;2023-11-21T01:13:32;14.70;;;9.47;;
6999;SDS011;3540;53.242;10.408;2023-11-21T01:15:58;16.30;;;9.87;;
6999;SDS011;3540;53.242;10.408;2023-11-21T01:18:24;16.60;;;10.00;;
6999;SDS011;3540;53.242;10.408;2023-11-21T01:20:50;18.13;;;9.80;;
6999;SDS011;3540;53.242;10.408;2023-11-21T01:23:18;17.43;;;10.00;;
6999;SDS011;3540;53.242;10.408;2023-11-21T01:25:43;15.83;;;10.20;;
6999;SDS011;3540;53.242;10.408;2023-11-21T01:28:09;17.60;;;11.40;;
6999;SDS011;3540;53.242;10.408;2023-11-21T01:30:35;19.40;;;10.73;;
6999;SDS011;3540;53.242;10.408;2023-11-21T01:33:00;17.03;;;11.70;;
6999;SDS011;3540;53.242;10.408;2023-11-21T01:35:26;17.83;;;11.10;;
6999;SDS011;3540;53.242;10.408;2023-11-21T01:37:51;18.30;;;11.40;;
6999;SDS011;3540;53.242;10.408;2023-11-21T01:40:17;17.77;;;11.10;;
6999;SDS011;3540;53.242;10.408;2023-11-21T01:42:43;20.10;;;12.03;;
6999;SDS011;3540;53.242;10.408;2023-11-21T01:45:10;20.10;;;11.57;;
6999;SDS011;3540;53.242;10.408;2023-11-21T01:47:37;18.50;;;12.10;;
6999;SDS011;3540;53.242;10.408;2023-11-21T01:50:03;22.10;;;13.17;;
6999;SDS011;3540;53.242;10.408;2023-11-21T01:52:31;21.87;;;13.43;;
6999;SDS011;3540;53.242;10.408;2023-11-21T01:54:58;24.60;;;14.20;;
6999;SDS011;3540;53.242;10.408;2023-11-21T01:57:25;21.87;;;13.60;;
6999;SDS011;3540;53.242;10.408;2023-11-21T01:59:51;24.93;;;14.43;;
6999;SDS011;3540;53.242;10.408;2023-11-21T02:02:19;23.67;;;13.97;;
6999;SDS011;3540;53.242;10.408;2023-11-21T02:04:45;22.30;;;14.27;;
6999;SDS011;3540;53.242;10.408;2023-11-21T02:07:11;22.70;;;13.77;;
6999;SDS011;3540;53.242;10.408;2023-11-21T02:09:37;23.97;;;14.23;;
6999;SDS011;3540;53.242;10.408;2023-11-21T02:12:03;20.83;;;13.33;;
6999;SDS011;3540;53.242;10.408;2023-11-21T02:14:30;21.63;;;13.30;;
6999;SDS011;3540;53.242;10.408;2023-11-21T02:16:56;24.80;;;13.67;;
6999;SDS011;3540;53.242;10.408;2023-11-21T02:19:22;25.57;;;13.97;;
6999;SDS011;3540;53.242;10.408;2023-11-21T02:21:50;21.83;;;13.53;;
6999;SDS011;3540;53.242;10.408;2023-11-21T02:24:25;21.80;;;13.50;;
6999;SDS011;3540;53.242;10.408;2023-11-21T02:26:52;20.47;;;13.27;;
6999;SDS011;3540;53.242;10.408;2023-11-21T02:29:18;18.90;;;12.73;;
6999;SDS011;3540;53.242;10.408;2023-11-21T02:31:47;22.10;;;13.37;;
6999;SDS011;3540;53.242;10.408;2023-11-21T02:34:14;19.90;;;13.73;;
6999;SDS011;3540;53.242;10.408;2023-11-21T02:36:40;18.63;;;12.80;;
6999;SDS011;3540;53.242;10.408;2023-11-21T02:39:07;19.53;;;12.23;;
6999;SDS011;3540;53.242;10.408;2023-11-21T02:41:33;20.90;;;12.83;;
6999;SDS011;3540;53.242;10.408;2023-11-21T02:43:59;21.87;;;12.80;;
6999;SDS011;3540;53.242;10.408;2023-11-21T02:46:26;18.57;;;11.83;;
6999;SDS011;3540;53.242;10.408;2023-11-21T02:48:51;20.27;;;12.83;;
6999;SDS011;3540;53.242;10.408;2023-11-21T02:51:19;18.33;;;11.27;;
6999;SDS011;3540;53.242;10.408;2023-11-21T02:53:45;19.50;;;11.83;;
6999;SDS011;3540;53.242;10.408;2023-11-21T02:56:11;17.97;;;12.23;;
6999;SDS011;3540;53.242;10.408;2023-11-21T02:58:37;19.07;;;11.47;;
6999;SDS011;3540;53.242;10.408;2023-11-21T03:01:06;16.57;;;11.53;;
6999;SDS011;3540;53.242;10.408;2023-11-21T03:03:33;17.80;;;12.17;;
6999;SDS011;3540;53.242;10.408;2023-11-21T03:05:58;18.13;;;11.03;;
6999;SDS011;3540;53.242;10.408;2023-11-21T03:08:24;15.57;;;11.10;;
6999;SDS011;3540;53.242;10.408;2023-11-21T03:10:49;15.00;;;11.17;;
6999;SDS011;3540;53.242;10.408;2023-11-21T03:13:15;14.90;;;10.60;;
6999;SDS011;3540;53.242;10.408;2023-11-21T03:15:41;16.17;;;10.83;;
6999;SDS011;3540;53.242;10.408;2023-11-21T03:18:07;14.40;;;10.50;;
6999;SDS011;3540;53.242;10.408;2023-11-21T03:20:33;14.03;;;10.23;;
6999;SDS011;3540;53.242;10.408;2023-11-21T03:23:00;17.43;;;10.30;;
6999;SDS011;3540;53.242;10.408;2023-11-21T03:25:25;15.50;;;10.50;;
6999;SDS011;3540;53.242;10.408;2023-11-21T03:27:52;12.97;;;10.13;;
6999;SDS011;3540;53.242;10.408;2023-11-21T03:30:18;14.17;;;10.43;;
6999;SDS011;3540;53.242;10.408;2023-11-21T03:32:44;15.03;;;10.30;;
6999;SDS011;3540;53.242;10.408;2023-11-21T03:35:10;15.17;;;10.70;;
6999;SDS011;3540;53.242;10.408;2023-11-21T03:37:35;14.93;;;10.53;;
6999;SDS011;3540;53.242;10.408;2023-11-21T03:40:03;13.73;;;10.10;;
6999;SDS011;3540;53.242;10.408;2023-11-21T03:42:29;15.13;;;10.27;;
6999;SDS011;3540;53.242;10.408;2023-11-21T03:44:55;15.03;;;10.77;;
6999;SDS011;3540;53.242;10.408;2023-11-21T03:47:20;14.87;;;10.50;;
6999;SDS011;3540;53.242;10.408;2023-11-21T03:49:46;11.90;;;9.47;;
6999;SDS011;3540;53.242;10.408;2023-11-21T03:52:12;15.03;;;10.17;;
6999;SDS011;3540;53.242;10.408;2023-11-21T03:54:37;14.03;;;10.07;;
6999;SDS011;3540;53.242;10.408;2023-11-21T03:57:03;13.53;;;9.50;;
6999;SDS011;3540;53.242;10.408;2023-11-21T03:59:29;18.37;;;10.13;;
6999;SDS011;3540;53.242;10.408;2023-11-21T04:01:55;15.00;;;10.70;;
6999;SDS011;3540;53.242;10.408;2023-11-21T04:04:22;15.07;;;9.87;;
6999;SDS011;3540;53.242;10.408;2023-11-21T04:06:47;13.23;;;9.90;;
6999;SDS011;3540;53.242;10.408;2023-11-21T04:09:13;14.90;;;10.83;;
6999;SDS011;3540;53.242;10.408;2023-11-21T04:11:39;14.87;;;10.07;;
6999;SDS011;3540;53.242;10.408;2023-11-21T04:14:04;12.73;;;9.63;;
6999;SDS011;3540;53.242;10.408;2023-11-21T04:16:30;12.00;;;9.13;;
6999;SDS011;3540;53.242;10.408;2023-11-21T04:18:56;14.73;;;10.20;;
6999;SDS011;3540;53.242;10.408;2023-11-21T04:21:22;14.50;;;9.73;;
6999;SDS011;3540;53.242;10.408;2023-11-21T04:23:49;12.27;;;9.20;;
6999;SDS011;3540;53.242;10.408;2023-11-21T04:26:14;12.87;;;9.40;;
6999;SDS011;3540;53.242;10.408;2023-11-21T04:28:40;13.93;;;9.50;;
6999;SDS011;3540;53.242;10.408;2023-11-21T04:31:05;13.00;;;9.03;;
6999;SDS011;3540;53.242;10.408;2023-11-21T04:33:32;14.10;;;9.77;;
6999;SDS011;3540;53.242;10.408;2023-11-21T04:35:57;13.40;;;9.80;;
6999;SDS011;3540;53.242;10.408;2023-11-21T04:38:23;13.67;;;10.00;;
6999;SDS011;3540;53.242;10.408;2023-11-21T04:40:49;13.70;;;9.77;;
6999;SDS011;3540;53.242;10.408;2023-11-21T04:43:14;13.17;;;9.73;;
6999;SDS011;3540;53.242;10.408;2023-11-21T04:45:40;14.23;;;9.37;;
6999;SDS011;3540;53.242;10.408;2023-11-21T04:48:06;12.00;;;9.10;;
6999;SDS011;3540;53.242;10.408;2023-11-21T04:50:33;11.87;;;9.50;;
6999;SDS011;3540;53.242;10.408;2023-11-21T04:52:59;14.03;;;9.57;;
6999;SDS011;3540;53.242;10.408;2023-11-21T04:55:25;12.93;;;9.63;;
6999;SDS011;3540;53.242;10.408;2023-11-21T04:57:53;13.73;;;9.50;;
6999;SDS011;3540;53.242;10.408;2023-11-21T05:00:19;13.73;;;10.50;;
6999;SDS011;3540;53.242;10.408;2023-11-21T05:02:46;12.07;;;9.53;;
6999;SDS011;3540;53.242;10.408;2023-11-21T05:05:12;14.57;;;9.60;;
6999;SDS011;3540;53.242;10.408;2023-11-21T05:07:38;12.67;;;9.83;;
6999;SDS011;3540;53.242;10.408;2023-11-21T05:10:05;13.83;;;9.97;;
6999;SDS011;3540;53.242;10.408;2023-11-21T05:12:33;16.00;;;10.43;;
6999;SDS011;3540;53.242;10.408;2023-11-21T05:15:03;13.50;;;10.03;;
6999;SDS011;3540;53.242;10.408;2023-11-21T05:17:33;15.23;;;10.70;;
6999;SDS011;3540;53.242;10.408;2023-11-21T05:19:59;12.57;;;10.10;;
6999;SDS011;3540;53.242;10.408;2023-11-21T05:22:28;13.57;;;10.13;;
6999;SDS011;3540;53.242;10.408;2023-11-21T05:24:54;14.07;;;10.13;;
6999;SDS011;3540;53.242;10.408;2023-11-21T05:27:20;15.67;;;11.20;;
6999;SDS011;3540;53.242;10.408;2023-11-21T05:29:46;15.53;;;10.73;;
6999;SDS011;3540;53.242;10.408;2023-11-21T05:32:11;14.10;;;10.73;;
6999;SDS011;3540;53.242;10.408;2023-11-21T05:34:37;12.93;;;9.73;;
6999;SDS011;3540;53.242;10.408;2023-11-21T05:37:03;14.57;;;10.40;;
6999;SDS011;3540;53.242;10.408;2023-11-21T05:39:30;14.97;;;10.60;;
6999;SDS011;3540;53.242;10.408;2023-11-21T05:41:56;15.93;;;10.70;;
6999;SDS011;3540;53.242;10.408;2023-11-21T05:44:22;12.97;;;10.40;;
6999;SDS011;3540;53.242;10.408;2023-11-21T05:46:48;14.93;;;9.83;;
6999;SDS011;3540;53.242;10.408;2023-11-21T05:49:15;12.00;;;9.40;;
6999;SDS011;3540;53.242;10.408;2023-11-21T05:51:41;13.57;;;9.20;;
6999;SDS011;3540;53.242;10.408;2023-11-21T05:54:07;13.90;;;10.47;;
6999;SDS011;3540;53.242;10.408;2023-11-21T05:56:33;14.30;;;10.27;;
6999;SDS011;3540;53.242;10.408;2023-11-21T05:58:58;14.13;;;9.43;;
6999;SDS011;3540;53.242;10.408;2023-11-21T06:01:24;14.00;;;9.53;;
6999;SDS011;3540;53.242;10.408;2023-11-21T06:03:53;14.00;;;9.70;;
6999;SDS011;3540;53.242;10.408;2023-11-21T06:06:20;12.60;;;9.47;;
6999;SDS011;3540;53.242;10.408;2023-11-21T06:08:48;13.07;;;10.07;;
6999;SDS011;3540;53.242;10.408;2023-11-21T06:11:14;16.43;;;10.27;;
6999;SDS011;3540;53.242;10.408;2023-11-21T06:13:39;14.17;;;10.20;;
6999;SDS011;3540;53.242;10.408;2023-11-21T06:16:05;13.87;;;9.67;;
6999;SDS011;3540;53.242;10.408;2023-11-21T06:18:31;15.37;;;9.60;;
6999;SDS011;3540;53.242;10.408;2023-11-21T06:20:57;13.87;;;10.43;;
6999;SDS011;3540;53.242;10.408;2023-11-21T06:23:23;14.47;;;10.07;;
6999;SDS011;3540;53.242;10.408;2023-11-21T06:25:49;15.20;;;10.30;;
6999;SDS011;3540;53.242;10.408;2023-11-21T06:28:14;12.03;;;9.60;;
6999;SDS011;3540;53.242;10.408;2023-11-21T06:30:42;15.37;;;10.07;;
6999;SDS011;3540;53.242;10.408;2023-11-21T06:33:09;12.83;;;10.07;;
6999;SDS011;3540;53.242;10.408;2023-11-21T06:35:35;17.60;;;9.40;;
6999;SDS011;3540;53.242;10.408;2023-11-21T06:38:01;16.00;;;9.50;;
6999;SDS011;3540;53.242;10.408;2023-11-21T06:40:27;17.97;;;9.67;;
6999;SDS011;3540;53.242;10.408;2023-11-21T06:42:53;11.53;;;9.30;;
6999;SDS011;3540;53.242;10.408;2023-11-21T06:45:19;15.77;;;9.67;;
6999;SDS011;3540;53.242;10.408;2023-11-21T06:47:45;13.57;;;9.43;;
6999;SDS011;3540;53.242;10.408;2023-11-21T06:50:10;15.40;;;9.63;;
6999;SDS011;3540;53.242;10.408;2023-11-21T06:52:37;13.27;;;9.20;;
6999;SDS011;3540;53.242;10.408;2023-11-21T06:55:03;15.30;;;9.83;;
6999;SDS011;3540;53.242;10.408;2023-11-21T06:57:29;14.47;;;9.77;;
6999;SDS011;3540;53.242;10.408;2023-11-21T06:59:56;13.20;;;9.53;;
6999;SDS011;3540;53.242;10.408;2023-11-21T07:02:22;11.17;;;9.20;;
6999;SDS011;3540;53.242;10.408;2023-11-21T07:04:48;14.27;;;9.27;;
6999;SDS011;3540;53.242;10.408;2023-11-21T07:07:13;13.47;;;9.23;;
6999;SDS011;3540;53.242;10.408;2023-11-21T07:09:39;15.97;;;9.53;;
6999;SDS011;3540;53.242;10.408;2023-11-21T07:12:05;13.70;;;9.20;;
6999;SDS011;3540;53.242;10.408;2023-11-21T07:14:35;11.93;;;9.27;;
6999;SDS011;3540;53.242;10.408;2023-11-21T07:17:02;15.07;;;9.90;;
6999;SDS011;3540;53.242;10.408;2023-11-21T07:19:27;12.70;;;9.63;;
6999;SDS011;3540;53.242;10.408;2023-11-21T07:21:54;13.17;;;8.83;;
6999;SDS011;3540;53.242;10.408;2023-11-21T07:24:20;12.27;;;8.63;;
6999;SDS011;3540;53.242;10.408;2023-11-21T07:26:47;11.67;;;8.73;;
6999;SDS011;3540;53.242;10.408;2023-11-21T07:29:13;11.87;;;8.93;;
6999;SDS011;3540;53.242;10.408;2023-11-21T07:31:39;12.63;;;8.93;;
6999;SDS011;3540;53.242;10.408;2023-11-21T07:34:06;11.77;;;9.07;;
6999;SDS011;3540;53.242;10.408;2023-11-21T07:36:33;12.53;;;8.93;;
6999;SDS011;3540;53.242;10.408;2023-11-21T07:38:59;12.87;;;9.17;;
6999;SDS011;3540;53.242;10.408;2023-11-21T07:41:25;12.30;;;9.83;;
6999;SDS011;3540;53.242;10.408;2023-11-21T07:43:51;13.70;;;10.13;;
6999;SDS011;3540;53.242;10.408;2023-11-21T07:46:17;10.87;;;8.80;;
6999;SDS011;3540;53.242;10.408;2023-11-21T07:48:43;12.60;;;9.10;;
6999;SDS011;3540;53.242;10.408;2023-11-21T07:51:09;18.30;;;9.40;;
6999;SDS011;3540;53.242;10.408;2023-11-21T07:53:35;14.00;;;9.77;;
6999;SDS011;3540;53.242;10.408;2023-11-21T07:56:05;14.43;;;9.77;;
6999;SDS011;3540;53.242;10.408;2023-11-21T07:58:32;13.47;;;9.97;;
6999;SDS011;3540;53.242;10.408;2023-11-21T08:00:58;13.03;;;9.47;;
6999;SDS011;3540;53.242;10.408;2023-11-21T08:03:25;13.60;;;10.00;;
6999;SDS011;3540;53.242;10.408;2023-11-21T08:05:55;15.63;;;9.90;;
6999;SDS011;3540;53.242;10.408;2023-11-21T08:08:21;14.20;;;9.27;;
6999;SDS011;3540;53.242;10.408;2023-11-21T08:10:47;14.23;;;10.77;;
6999;SDS011;3540;53.242;10.408;2023-11-21T08:13:33;13.60;;;9.90;;
6999;SDS011;3540;53.242;10.408;2023-11-21T08:15:58;13.87;;;10.43;;
6999;SDS011;3540;53.242;10.408;2023-11-21T08:18:27;12.27;;;10.57;;
6999;SDS011;3540;53.242;10.408;2023-11-21T08:20:54;13.17;;;9.83;;
6999;SDS011;3540;53.242;10.408;2023-11-21T08:23:20;11.40;;;9.63;;
6999;SDS011;3540;53.242;10.408;2023-11-21T08:25:50;13.97;;;9.90;;
6999;SDS011;3540;53.242;10.408;2023-11-21T08:28:16;14.60;;;10.17;;
6999;SDS011;3540;53.242;10.408;2023-11-21T08:30:42;16.13;;;10.47;;
6999;SDS011;3540;53.242;10.408;2023-11-21T08:33:08;10.80;;;9.00;;
6999;SDS011;3540;53.242;10.408;2023-11-21T08:35:34;13.23;;;9.53;;
6999;SDS011;3540;53.242;10.408;2023-11-21T08:38:01;12.43;;;9.60;;
6999;SDS011;3540;53.242;10.408;2023-11-21T08:40:27;14.93;;;9.57;;
6999;SDS011;3540;53.242;10.408;2023-11-21T08:42:53;13.13;;;9.60;;
6999;SDS011;3540;53.242;10.408;2023-11-21T08:45:21;15.27;;;9.53;;
6999;SDS011;3540;53.242;10.408;2023-11-21T08:47:47;12.67;;;9.53;;
6999;SDS011;3540;53.242;10.408;2023-11-21T08:50:13;13.90;;;8.80;;
6999;SDS011;3540;53.242;10.408;2023-11-21T08:52:39;12.83;;;9.00;;
6999;SDS011;3540;53.242;10.408;2023-11-21T08:55:06;12.37;;;9.27;;
6999;SDS011;3540;53.242;10.408;2023-11-21T08:57:36;13.83;;;9.17;;
6999;SDS011;3540;53.242;10.408;2023-11-21T09:00:05;14.10;;;9.10;;
6999;SDS011;3540;53.242;10.408;2023-11-21T09:02:42;14.00;;;9.23;;
6999;SDS011;3540;53.242;10.408;2023-11-21T09:05:08;11.73;;;9.03;;
6999;SDS011;3540;53.242;10.408;2023-11-21T09:07:35;11.10;;;8.63;;
6999;SDS011;3540;53.242;10.408;2023-11-21T09:10:02;10.00;;;8.27;;
6999;SDS011;3540;53.242;10.408;2023-11-21T09:12:28;11.53;;;8.40;;
6999;SDS011;3540;53.242;10.408;2023-11-21T09:14:54;13.53;;;8.17;;
6999;SDS011;3540;53.242;10.408;2023-11-21T09:17:19;10.37;;;7.80;;
6999;SDS011;3540;53.242;10.408;2023-11-21T09:19:45;12.10;;;8.00;;
6999;SDS011;3540;53.242;10.408;2023-11-21T09:22:15;13.90;;;7.83;;
6999;SDS011;3540;53.242;10.408;2023-11-21T09:24:41;14.90;;;8.50;;
6999;SDS011;3540;53.242;10.408;2023-11-21T09:27:07;11.60;;;8.53;;
6999;SDS011;3540;53.242;10.408;2023-11-21T09:29:34;10.67;;;7.57;;
6999;SDS011;3540;53.242;10.408;2023-11-21T09:32:00;9.67;;;7.30;;
6999;SDS011;3540;53.242;10.408;2023-11-21T09:34:26;8.93;;;7.10;;
6999;SDS011;3540;53.242;10.408;2023-11-21T09:36:52;8.67;;;7.30;;
6999;SDS011;3540;53.242;10.408;2023-11-21T09:39:19;9.03;;;7.20;;
6999;SDS011;3540;53.242;10.408;2023-11-21T09:41:49;11.07;;;7.07;;
6999;SDS011;3540;53.242;10.408;2023-11-21T09:44:19;10.00;;;6.70;;
6999;SDS011;3540;53.242;10.408;2023-11-21T09:47:05;8.90;;;7.27;;
6999;SDS011;3540;53.242;10.408;2023-11-21T09:49:35;8.50;;;6.77;;
6999;SDS011;3540;53.242;10.408;2023-11-21T09:52:02;9.27;;;7.03;;
6999;SDS011;3540;53.242;10.408;2023-11-21T09:54:29;11.27;;;7.27;;
6999;SDS011;3540;53.242;10.408;2023-11-21T09:56:57;7.47;;;6.40;;
6999;SDS011;3540;53.242;10.408;2023-11-21T09:59:24;8.37;;;6.40;;
6999;SDS011;3540;53.242;10.408;2023-11-21T10:01:54;7.70;;;6.20;;
6999;SDS011;3540;53.242;10.408;2023-11-21T10:04:19;8.67;;;6.10;;
6999;SDS011;3540;53.242;10.408;2023-11-21T10:06:45;7.00;;;6.10;;
6999;SDS011;3540;53.242;10.408;2023-11-21T10:09:13;8.50;;;5.73;;
6999;SDS011;3540;53.242;10.408;2023-11-21T10:11:41;8.37;;;5.60;;
6999;SDS011;3540;53.242;10.408;2023-11-21T10:14:10;10.97;;;5.97;;
6999;SDS011;3540;53.242;10.408;2023-11-21T10:16:40;16.13;;;11.47;;
6999;SDS011;3540;53.242;10.408;2023-11-21T10:19:09;8.67;;;5.73;;
6999;SDS011;3540;53.242;10.408;2023-11-21T10:21:37;7.83;;;6.20;;
6999;SDS011;3540;53.242;10.408;2023-11-21T10:24:03;8.70;;;5.23;;
6999;SDS011;3540;53.242;10.408;2023-11-21T10:26:30;5.97;;;5.37;;
6999;SDS011;3540;53.242;10.408;2023-11-21T10:28:57;7.07;;;5.20;;
6999;SDS011;3540;53.242;10.408;2023-11-21T10:31:27;7.50;;;4.80;;
6999;SDS011;3540;53.242;10.408;2023-11-21T10:33:52;10.33;;;5.17;;
6999;SDS011;3540;53.242;10.408;2023-11-21T10:36:25;7.00;;;5.27;;
6999;SDS011;3540;53.242;10.408;2023-11-21T10:38:52;7.30;;;4.90;;
6999;SDS011;3540;53.242;10.408;2023-11-21T10:41:18;6.53;;;5.20;;
6999;SDS011;3540;53.242;10.408;2023-11-21T10:43:45;5.87;;;5.00;;
6999;SDS011;3540;53.242;10.408;2023-11-21T10:46:10;6.67;;;4.87;;
6999;SDS011;3540;53.242;10.408;2023-11-21T10:48:36;6.67;;;5.20;;
6999;SDS011;3540;53.242;10.408;2023-11-21T10:51:11;9.10;;;5.60;;
6999;SDS011;3540;53.242;10.408;2023-11-21T10:53:40;5.53;;;4.80;;
6999;SDS011;3540;53.242;10.408;2023-11-21T10:56:07;6.27;;;4.60;;
6999;SDS011;3540;53.242;10.408;2023-11-21T10:58:35;6.63;;;4.70;;
6999;SDS011;3540;53.242;10.408;2023-11-21T11:01:03;5.83;;;4.30;;
6999;SDS011;3540;53.242;10.408;2023-11-21T11:03:32;7.30;;;4.43;;
6999;SDS011;3540;53.242;10.408;2023-11-21T11:06:01;5.07;;;3.90;;
6999;SDS011;3540;53.242;10.408;2023-11-21T11:08:28;6.27;;;4.73;;
6999;SDS011;3540;53.242;10.408;2023-11-21T11:10:54;5.63;;;3.87;;
6999;SDS011;3540;53.242;10.408;2023-11-21T11:13:20;4.83;;;4.10;;
6999;SDS011;3540;53.242;10.408;2023-11-21T11:15:50;4.37;;;3.87;;
6999;SDS011;3540;53.242;10.408;2023-11-21T11:18:16;6.53;;;4.20;;
6999;SDS011;3540;53.242;10.408;2023-11-21T11:20:42;9.23;;;4.17;;
6999;SDS011;3540;53.242;10.408;2023-11-21T11:26:24;4.57;;;4.07;;
6999;SDS011;3540;53.242;10.408;2023-11-21T11:32:12;7.10;;;4.50;;
6999;SDS011;3540;53.242;10.408;2023-11-21T11:37:25;6.37;;;4.50;;
6999;SDS011;3540;53.242;10.408;2023-11-21T11:39:51;8.83;;;4.60;;
6999;SDS011;3540;53.242;10.408;2023-11-21T11:42:17;9.47;;;4.70;;
6999;SDS011;3540;53.242;10.408;2023-11-21T11:47:22;5.07;;;3.87;;
6999;SDS011;3540;53.242;10.408;2023-11-21T11:50:10;6.30;;;4.27;;
6999;SDS011;3540;53.242;10.408;2023-11-21T11:52:48;6.30;;;4.67;;
6999;SDS011;3540;53.242;10.408;2023-11-21T11:55:20;6.27;;;3.50;;
6999;SDS011;3540;53.242;10.408;2023-11-21T11:57:56;6.33;;;3.57;;
6999;SDS011;3540;53.242;10.408;2023-11-21T12:02:53;7.00;;;3.97;;
6999;SDS011;3540;53.242;10.408;2023-11-21T12:05:22;5.03;;;3.73;;
6999;SDS011;3540;53.242;10.408;2023-11-21T12:10:19;5.37;;;3.87;;
6999;SDS011;3540;53.242;10.408;2023-11-21T12:12:47;5.63;;;4.10;;
6999;SDS011;3540;53.242;10.408;2023-11-21T12:15:14;6.50;;;3.50;;
6999;SDS011;3540;53.242;10.408;2023-11-21T12:17:43;6.03;;;4.03;;
6999;SDS011;3540;53.242;10.408;2023-11-21T12:20:10;4.50;;;3.73;;
6999;SDS011;3540;53.242;10.408;2023-11-21T12:22:49;5.03;;;3.60;;
6999;SDS011;3540;53.242;10.408;2023-11-21T12:25:17;5.80;;;3.87;;
6999;SDS011;3540;53.242;10.408;2023-11-21T12:27:44;5.27;;;3.30;;
6999;SDS011;3540;53.242;10.408;2023-11-21T12:30:18;6.53;;;3.90;;
6999;SDS011;3540;53.242;10.408;2023-11-21T12:32:45;4.83;;;3.87;;
6999;SDS011;3540;53.242;10.408;2023-11-21T12:35:17;5.37;;;3.77;;
6999;SDS011;3540;53.242;10.408;2023-11-21T12:37:47;5.33;;;3.77;;
6999;SDS011;3540;53.242;10.408;2023-11-21T12:40:13;5.87;;;4.00;;
6999;SDS011;3540;53.242;10.408;2023-11-21T12:42:51;5.27;;;3.90;;
6999;SDS011;3540;53.242;10.408;2023-11-21T12:45:19;7.43;;;3.63;;
6999;SDS011;3540;53.242;10.408;2023-11-21T12:47:47;6.80;;;3.77;;
6999;SDS011;3540;53.242;10.408;2023-11-21T12:50:15;4.73;;;3.60;;
6999;SDS011;3540;53.242;10.408;2023-11-21T12:52:46;5.33;;;3.67;;
6999;SDS011;3540;53.242;10.408;2023-11-21T12:55:16;4.30;;;3.50;;
6999;SDS011;3540;53.242;10.408;2023-11-21T12:57:45;5.60;;;4.00;;
6999;SDS011;3540;53.242;10.408;2023-11-21T13:00:16;6.73;;;3.93;;
6999;SDS011;3540;53.242;10.408;2023-11-21T13:02:52;6.47;;;3.60;;
6999;SDS011;3540;53.242;10.408;2023-11-21T13:07:52;4.43;;;3.67;;
6999;SDS011;3540;53.242;10.408;2023-11-21T13:10:20;6.17;;;3.83;;
6999;SDS011;3540;53.242;10.408;2023-11-21T13:12:51;4.83;;;3.80;;
6999;SDS011;3540;53.242;10.408;2023-11-21T13:15:17;5.40;;;4.13;;
6999;SDS011;3540;53.242;10.408;2023-11-21T13:17:45;5.63;;;3.73;;
6999;SDS011;3540;53.242;10.408;2023-11-21T13:20:11;5.00;;;3.40;;
6999;SDS011;3540;53.242;10.408;2023-11-21T13:22:52;5.10;;;3.70;;
6999;SDS011;3540;53.242;10.408;2023-11-21T13:25:20;6.57;;;3.90;;
6999;SDS011;3540;53.242;10.408;2023-11-21T13:27:46;4.23;;;3.57;;
6999;SDS011;3540;53.242;10.408;2023-11-21T13:30:12;5.40;;;4.03;;
6999;SDS011;3540;53.242;10.408;2023-11-21T13:32:43;4.83;;;3.67;;
6999;SDS011;3540;53.242;10.408;2023-11-21T13:35:14;5.33;;;3.87;;
6999;SDS011;3540;53.242;10.408;2023-11-21T13:37:48;6.73;;;4.57;;
6999;SDS011;3540;53.242;10.408;2023-11-21T13:40:19;4.93;;;4.07;;
6999;SDS011;3540;53.242;10.408;2023-11-21T13:42:47;6.13;;;4.40;;
6999;SDS011;3540;53.242;10.408;2023-11-21T13:45:14;6.83;;;4.83;;
6999;SDS011;3540;53.242;10.408;2023-11-21T13:47:41;5.60;;;4.10;;
6999;SDS011;3540;53.242;10.408;2023-11-21T13:50:07;6.50;;;4.20;;
6999;SDS011;3540;53.242;10.408;2023-11-21T13:52:42;8.63;;;6.00;;
6999;SDS011;3540;53.242;10.408;2023-11-21T13:55:10;5.27;;;4.00;;
6999;SDS011;3540;53.242;10.408;2023-11-21T13:57:40;7.07;;;3.83;;
6999;SDS011;3540;53.242;10.408;2023-11-21T14:00:09;5.73;;;4.10;;
6999;SDS011;3540;53.242;10.408;2023-11-21T14:02:56;5.60;;;3.80;;
6999;SDS011;3540;53.242;10.408;2023-11-21T14:05:25;6.63;;;4.10;;
6999;SDS011;3540;53.242;10.408;2023-11-21T14:07:57;8.27;;;4.37;;
6999;SDS011;3540;53.242;10.408;2023-11-21T14:10:32;5.77;;;4.47;;
6999;SDS011;3540;53.242;10.408;2023-11-21T14:13:05;7.93;;;4.53;;
6999;SDS011;3540;53.242;10.408;2023-11-21T14:15:31;6.77;;;4.27;;
6999;SDS011;3540;53.242;10.408;2023-11-21T14:18:02;6.67;;;4.37;;
6999;SDS011;3540;53.242;10.408;2023-11-21T14:20:32;10.00;;;5.00;;
6999;SDS011;3540;53.242;10.408;2023-11-21T14:22:58;6.53;;;4.73;;
6999;SDS011;3540;53.242;10.408;2023-11-21T14:25:24;8.70;;;4.60;;
6999;SDS011;3540;53.242;10.408;2023-11-21T14:27:49;5.80;;;3.83;;
6999;SDS011;3540;53.242;10.408;2023-11-21T14:30:15;6.37;;;4.53;;
6999;SDS011;3540;53.242;10.408;2023-11-21T14:32:44;11.90;;;4.40;;
6999;SDS011;3540;53.242;10.408;2023-11-21T14:35:09;4.83;;;4.23;;
6999;SDS011;3540;53.242;10.408;2023-11-21T14:37:35;6.13;;;4.60;;
6999;SDS011;3540;53.242;10.408;2023-11-21T14:40:01;5.47;;;4.30;;
6999;SDS011;3540;53.242;10.408;2023-11-21T14:42:29;7.17;;;5.13;;
6999;SDS011;3540;53.242;10.408;2023-11-21T14:44:55;7.30;;;4.37;;
6999;SDS011;3540;53.242;10.408;2023-11-21T14:47:25;7.17;;;4.43;;
6999;SDS011;3540;53.242;10.408;2023-11-21T14:49:52;6.47;;;4.53;;
6999;SDS011;3540;53.242;10.408;2023-11-21T14:52:18;5.23;;;4.27;;
6999;SDS011;3540;53.242;10.408;2023-11-21T14:54:57;7.53;;;4.37;;
6999;SDS011;3540;53.242;10.408;2023-11-21T14:57:42;5.00;;;3.83;;
6999;SDS011;3540;53.242;10.408;2023-11-21T15:00:14;6.47;;;3.90;;
6999;SDS011;3540;53.242;10.408;2023-11-21T15:02:59;7.07;;;4.10;;
6999;SDS011;3540;53.242;10.408;2023-11-21T15:05:25;5.80;;;4.30;;
6999;SDS011;3540;53.242;10.408;2023-11-21T15:07:52;5.80;;;4.20;;